^^
Grace C. Lehan Memorial Weather Station Historical Data
Daily Summary for May 7, 2021 Units:  Both    English   Metric
Daily Weekly Monthly Yearly
  High: Low: Average:
Temperature: 42.4 °F /  5.8 °C 28.1 °F /  -2.2 °C 34 °F /  1.1 °C
Dew Point: 26.6 °F /  -3 °C 22.7 °F /  -5.2 °C 24.1 °F /  -4.4 °C
Humidity: 80% 52% 67%
Wind Speed: 7.7mph /  12.4km/h - 2.3mph /  3.7km/h
Wind Gust: 17mph /  27.4km/h - -
Wind- - NW
Pressure: 30.07 in /  1018.2 hPa 29.95 in /  1014.1 hPa -
Precipitation: 0.00 in /  0 mm    
 
 
Tabular Data for May 7, 2021
Time Temperature Dew Point Pressure Wind Wind Speed Wind Gust Humidity Rainfall Rate (Hourly) solar
00:04 33.8 °F /  1 °C 24.4 °F /  -4.2 °C 29.95in /  1014.1hPa NW 2.8mph /  4.5km/h 14mph /  22.5km/h 68% 0.00in /  0mm 0 W/m2
00:09 33.7 °F /  0.9 °C 24.3 °F /  -4.3 °C 29.95in /  1014.1hPa NW 4.6mph /  7.4km/h 9mph /  14.5km/h 68% 0.00in /  0mm 0 W/m2
00:14 33.7 °F /  0.9 °C 24.3 °F /  -4.3 °C 29.95in /  1014.1hPa NW 4.5mph /  7.2km/h 12mph /  19.3km/h 68.2% 0.00in /  0mm 0 W/m2
00:19 33.7 °F /  0.9 °C 24.3 °F /  -4.3 °C 29.96in /  1014.4hPa NW 2.6mph /  4.2km/h 12mph /  19.3km/h 68% 0.00in /  0mm 0 W/m2
00:24 33.7 °F /  0.9 °C 24.4 °F /  -4.2 °C 29.96in /  1014.4hPa NW 1.9mph /  3.1km/h 12mph /  19.3km/h 68.3% 0.00in /  0mm 0 W/m2
00:29 33.6 °F /  0.9 °C 24.3 °F /  -4.3 °C 29.96in /  1014.4hPa NW 5.3mph /  8.5km/h 12mph /  19.3km/h 68.3% 0.00in /  0mm 0 W/m2
00:34 33.6 °F /  0.9 °C 24.4 °F /  -4.2 °C 29.96in /  1014.4hPa NW 2mph /  3.2km/h 12mph /  19.3km/h 68.5% 0.00in /  0mm 0 W/m2
00:39 33.6 °F /  0.9 °C 24.2 °F /  -4.3 °C 29.97in /  1014.8hPa NW 4.7mph /  7.6km/h 11mph /  17.7km/h 68% 0.00in /  0mm 0 W/m2
00:44 33.6 °F /  0.9 °C 24.2 °F /  -4.3 °C 29.96in /  1014.4hPa NNW 2.9mph /  4.7km/h 11mph /  17.7km/h 68% 0.00in /  0mm 0 W/m2
00:49 33.5 °F /  0.8 °C 24.1 °F /  -4.4 °C 29.97in /  1014.8hPa NNW 1.6mph /  2.6km/h 11mph /  17.7km/h 68% 0.00in /  0mm 0 W/m2
00:54 33.5 °F /  0.8 °C 24.3 °F /  -4.3 °C 29.97in /  1014.8hPa NW 3.3mph /  5.3km/h 11mph /  17.7km/h 68.5% 0.00in /  0mm 0 W/m2
00:59 33.5 °F /  0.8 °C 24.4 °F /  -4.2 °C 29.97in /  1014.8hPa NW 0.9mph /  1.4km/h 11mph /  17.7km/h 68.8% 0.00in /  0mm 0 W/m2
01:04 33.5 °F /  0.8 °C 24.4 °F /  -4.2 °C 29.96in /  1014.4hPa NNW 1.5mph /  2.4km/h 11mph /  17.7km/h 69% 0.00in /  0mm 0 W/m2
01:09 33.4 °F /  0.8 °C 24.3 °F /  -4.3 °C 29.97in /  1014.8hPa NW 2mph /  3.2km/h 10mph /  16.1km/h 69% 0.00in /  0mm 0 W/m2
01:14 33.3 °F /  0.7 °C 24.2 °F /  -4.3 °C 29.97in /  1014.8hPa NNW 0.8mph /  1.3km/h 10mph /  16.1km/h 69% 0.00in /  0mm 0 W/m2
01:19 33.3 °F /  0.7 °C 24.2 °F /  -4.3 °C 29.97in /  1014.8hPa NNW 1.2mph /  1.9km/h 10mph /  16.1km/h 69% 0.00in /  0mm 0 W/m2
01:24 33.2 °F /  0.7 °C 24.2 °F /  -4.3 °C 29.97in /  1014.8hPa NW 2.4mph /  3.9km/h 10mph /  16.1km/h 69% 0.00in /  0mm 0 W/m2
01:29 33.2 °F /  0.7 °C 24.2 °F /  -4.3 °C 29.97in /  1014.8hPa NW 4.3mph /  6.9km/h 13mph /  20.9km/h 69% 0.00in /  0mm 0 W/m2
01:34 33.1 °F /  0.6 °C 24.1 °F /  -4.4 °C 29.97in /  1014.8hPa NW 2.6mph /  4.2km/h 13mph /  20.9km/h 69% 0.00in /  0mm 0 W/m2
01:39 33.1 °F /  0.6 °C 24.1 °F /  -4.4 °C 29.97in /  1014.8hPa NW 2mph /  3.2km/h 8mph /  12.9km/h 69% 0.00in /  0mm 0 W/m2
01:44 33.1 °F /  0.6 °C 24.1 °F /  -4.4 °C 29.97in /  1014.8hPa NW 4mph /  6.4km/h 10mph /  16.1km/h 69% 0.00in /  0mm 0 W/m2
01:49 33.1 °F /  0.6 °C 24 °F /  -4.4 °C 29.97in /  1014.8hPa NNW 3.1mph /  5km/h 10mph /  16.1km/h 69% 0.00in /  0mm 0 W/m2
01:54 33 °F /  0.6 °C 24.2 °F /  -4.3 °C 29.98in /  1015.1hPa NNW 3.5mph /  5.6km/h 11mph /  17.7km/h 69.7% 0.00in /  0mm 0 W/m2
01:59 33 °F /  0.6 °C 24.3 °F /  -4.3 °C 29.98in /  1015.1hPa NW 3mph /  4.8km/h 11mph /  17.7km/h 70% 0.00in /  0mm 0 W/m2
02:04 32.9 °F /  0.5 °C 24.2 °F /  -4.3 °C 29.98in /  1015.1hPa NW 1.8mph /  2.9km/h 11mph /  17.7km/h 70% 0.00in /  0mm 0 W/m2
02:09 32.9 °F /  0.5 °C 24.2 °F /  -4.3 °C 29.98in /  1015.1hPa NW 1.2mph /  1.9km/h 10mph /  16.1km/h 70% 0.00in /  0mm 0 W/m2
02:14 32.8 °F /  0.4 °C 24.1 °F /  -4.4 °C 29.99in /  1015.5hPa NW 1.3mph /  2.1km/h 10mph /  16.1km/h 70% 0.00in /  0mm 0 W/m2
02:19 32.8 °F /  0.4 °C 24.2 °F /  -4.3 °C 29.99in /  1015.5hPa NW 0.9mph /  1.4km/h 10mph /  16.1km/h 70.2% 0.00in /  0mm 0 W/m2
02:24 32.7 °F /  0.4 °C 24.4 °F /  -4.2 °C 29.99in /  1015.5hPa WNW 1.6mph /  2.6km/h 10mph /  16.1km/h 71% 0.00in /  0mm 0 W/m2
02:29 32.6 °F /  0.3 °C 24.3 °F /  -4.3 °C 29.99in /  1015.5hPa WNW 2.9mph /  4.7km/h 10mph /  16.1km/h 71% 0.00in /  0mm 0 W/m2
02:34 32.6 °F /  0.3 °C 24.2 °F /  -4.3 °C 29.99in /  1015.5hPa NW 1.7mph /  2.7km/h 10mph /  16.1km/h 71% 0.00in /  0mm 0 W/m2
02:39 32.5 °F /  0.3 °C 24.4 °F /  -4.2 °C 29.99in /  1015.5hPa NW 3.7mph /  6km/h 10mph /  16.1km/h 71.8% 0.00in /  0mm 0 W/m2
02:44 32.5 °F /  0.3 °C 24.5 °F /  -4.2 °C 29.99in /  1015.5hPa NW 3.3mph /  5.3km/h 11mph /  17.7km/h 72% 0.00in /  0mm 0 W/m2
02:49 32.5 °F /  0.3 °C 24.4 °F /  -4.2 °C 29.99in /  1015.5hPa NW 2.6mph /  4.2km/h 11mph /  17.7km/h 72% 0.00in /  0mm 0 W/m2
02:54 32.4 °F /  0.2 °C 24.4 °F /  -4.2 °C 29.99in /  1015.5hPa NNW 2.1mph /  3.4km/h 12mph /  19.3km/h 72% 0.00in /  0mm 0 W/m2
02:59 32.4 °F /  0.2 °C 24.4 °F /  -4.2 °C 29.99in /  1015.5hPa NW 3.7mph /  6km/h 12mph /  19.3km/h 72% 0.00in /  0mm 0 W/m2
03:04 32.4 °F /  0.2 °C 24.4 °F /  -4.2 °C 29.99in /  1015.5hPa NW 2.5mph /  4km/h 12mph /  19.3km/h 72% 0.00in /  0mm 0 W/m2
03:09 32.3 °F /  0.2 °C 24.5 °F /  -4.2 °C 29.99in /  1015.5hPa NW 2.3mph /  3.7km/h 11mph /  17.7km/h 72.5% 0.00in /  0mm 0 W/m2
03:14 32.3 °F /  0.2 °C 24.6 °F /  -4.1 °C 29.99in /  1015.5hPa NNW 1.3mph /  2.1km/h 11mph /  17.7km/h 73% 0.00in /  0mm 0 W/m2
03:19 32.2 °F /  0.1 °C 24.5 °F /  -4.2 °C 29.99in /  1015.5hPa NW 2.6mph /  4.2km/h 11mph /  17.7km/h 73% 0.00in /  0mm 0 W/m2
03:24 32.1 °F /  0.1 °C 24.4 °F /  -4.2 °C 29.99in /  1015.5hPa NW 1.1mph /  1.8km/h 11mph /  17.7km/h 73% 0.00in /  0mm 0 W/m2
03:29 32.1 °F /  0.1 °C 24.4 °F /  -4.2 °C 29.99in /  1015.5hPa NW 4.8mph /  7.7km/h 11mph /  17.7km/h 73% 0.00in /  0mm 0 W/m2
03:34 32 °F /  0 °C 24.3 °F /  -4.3 °C 29.99in /  1015.5hPa NW 2.3mph /  3.7km/h 11mph /  17.7km/h 73% 0.00in /  0mm 0 W/m2
03:39 32 °F /  0 °C 24.3 °F /  -4.3 °C 29.99in /  1015.5hPa NW 1.6mph /  2.6km/h 7mph /  11.3km/h 73% 0.00in /  0mm 0 W/m2
03:44 31.9 °F /  -0.1 °C 24.2 °F /  -4.3 °C 29.99in /  1015.5hPa NNW 2.8mph /  4.5km/h 7mph /  11.3km/h 73% 0.00in /  0mm 0 W/m2
03:49 31.9 °F /  -0.1 °C 24.5 °F /  -4.2 °C 29.99in /  1015.5hPa NW 1.9mph /  3.1km/h 7mph /  11.3km/h 73.8% 0.00in /  0mm 0 W/m2
03:54 31.9 °F /  -0.1 °C 24.5 °F /  -4.2 °C 29.99in /  1015.5hPa NNW 2.4mph /  3.9km/h 7mph /  11.3km/h 73.8% 0.00in /  0mm 0 W/m2
03:59 31.9 °F /  -0.1 °C 24.4 °F /  -4.2 °C 29.99in /  1015.5hPa NW 3.2mph /  5.1km/h 11mph /  17.7km/h 73.6% 0.00in /  0mm 0 W/m2
04:00 31.9 °F /  -0.1 °C 24.6 °F /  -4.1 °C 29.99in /  1015.5hPa Calm   11mph /  17.7km/h 74% 0.00in /  0mm 0 W/m2
04:09 31.9 °F /  -0.1 °C 24.4 °F /  -4.2 °C 29.99in /  1015.5hPa NW 2.5mph /  4km/h 9mph /  14.5km/h 73.6% 0.00in /  0mm 0 W/m2
04:14 31.8 °F /  -0.1 °C 24.2 °F /  -4.3 °C 29.99in /  1015.5hPa NW 2.5mph /  4km/h 9mph /  14.5km/h 73.2% 0.00in /  0mm 0 W/m2
04:19 31.8 °F /  -0.1 °C 24.2 °F /  -4.3 °C 29.99in /  1015.5hPa NW 3.6mph /  5.8km/h 9mph /  14.5km/h 73.1% 0.00in /  0mm 0 W/m2
04:24 31.8 °F /  -0.1 °C 24.4 °F /  -4.2 °C 29.99in /  1015.5hPa NNW 1.1mph /  1.8km/h 9mph /  14.5km/h 73.7% 0.00in /  0mm 0 W/m2
04:29 31.8 °F /  -0.1 °C 24.3 °F /  -4.3 °C 29.99in /  1015.5hPa NW 2.9mph /  4.7km/h 10mph /  16.1km/h 73.5% 0.00in /  0mm 0 W/m2
04:34 31.7 °F /  -0.2 °C 24.3 °F /  -4.3 °C 29.99in /  1015.5hPa NW 1.9mph /  3.1km/h 10mph /  16.1km/h 73.9% 0.00in /  0mm 0 W/m2
04:39 31.7 °F /  -0.2 °C 24.3 °F /  -4.3 °C 29.99in /  1015.5hPa NW 1.9mph /  3.1km/h 9mph /  14.5km/h 73.6% 0.00in /  0mm 0 W/m2
04:44 31.7 °F /  -0.2 °C 24.3 °F /  -4.3 °C 29.99in /  1015.5hPa NW 2.6mph /  4.2km/h 9mph /  14.5km/h 73.7% 0.00in /  0mm 0 W/m2
04:49 31.6 °F /  -0.2 °C 24.1 °F /  -4.4 °C 29.99in /  1015.5hPa NW 1.9mph /  3.1km/h 9mph /  14.5km/h 73.2% 0.00in /  0mm 0 W/m2
04:54 31.6 °F /  -0.2 °C 24 °F /  -4.4 °C 29.99in /  1015.5hPa NNW 0.4mph /  0.6km/h 9mph /  14.5km/h 73.2% 0.00in /  0mm 0 W/m2
04:59 31.6 °F /  -0.2 °C 23.9 °F /  -4.5 °C 29.99in /  1015.5hPa NNW 1.6mph /  2.6km/h 9mph /  14.5km/h 73% 0.00in /  0mm 0 W/m2
05:04 31.5 °F /  -0.3 °C 24.2 °F /  -4.3 °C 29.99in /  1015.5hPa NNW 2.2mph /  3.5km/h 9mph /  14.5km/h 73.9% 0.00in /  0mm 0 W/m2
05:09 31.4 °F /  -0.3 °C 24.1 °F /  -4.4 °C 29.98in /  1015.1hPa NW 2mph /  3.2km/h 11mph /  17.7km/h 74% 0.00in /  0mm 0 W/m2
05:14 31.4 °F /  -0.3 °C 24.1 °F /  -4.4 °C 29.98in /  1015.1hPa NW 0.9mph /  1.4km/h 11mph /  17.7km/h 74% 0.00in /  0mm 0 W/m2
05:19 31.3 °F /  -0.4 °C 24 °F /  -4.4 °C 29.99in /  1015.5hPa NW 1.9mph /  3.1km/h 11mph /  17.7km/h 74% 0.00in /  0mm 0 W/m2
05:24 31.2 °F /  -0.4 °C 23.9 °F /  -4.5 °C 29.99in /  1015.5hPa Calm   11mph /  17.7km/h 74% 0.00in /  0mm 0 W/m2
05:29 31.2 °F /  -0.4 °C 23.9 °F /  -4.5 °C 29.99in /  1015.5hPa NW 0.4mph /  0.6km/h 11mph /  17.7km/h 74% 0.00in /  0mm 0 W/m2
05:34 31.1 °F /  -0.5 °C 23.8 °F /  -4.6 °C 29.99in /  1015.5hPa NW 0.5mph /  0.8km/h 11mph /  17.7km/h 74% 0.00in /  0mm 0 W/m2
05:39 31 °F /  -0.6 °C 23.7 °F /  -4.6 °C 30.00in /  1015.8hPa NW 0.3mph /  0.5km/h 5mph /  8km/h 74% 0.00in /  0mm 0 W/m2
05:44 30.9 °F /  -0.6 °C 23.6 °F /  -4.7 °C 30.00in /  1015.8hPa NW 0.1mph /  0.2km/h 5mph /  8km/h 74% 0.00in /  0mm 0 W/m2
05:49 30.8 °F /  -0.7 °C 23.7 °F /  -4.6 °C 30.00in /  1015.8hPa Calm   5mph /  8km/h 74.4% 0.00in /  0mm 0 W/m2
05:54 30.8 °F /  -0.7 °C 23.6 °F /  -4.7 °C 30.00in /  1015.8hPa Calm   5mph /  8km/h 74.4% 0.00in /  0mm 0 W/m2
05:59 30.7 °F /  -0.7 °C 23.7 °F /  -4.6 °C 30.00in /  1015.8hPa Calm   5mph /  8km/h 75% 0.00in /  0mm 0 W/m2
06:04 30.6 °F /  -0.8 °C 23.6 °F /  -4.7 °C 30.00in /  1015.8hPa NW 0.8mph /  1.3km/h 5mph /  8km/h 75% 0.00in /  0mm 0 W/m2
06:09 30.5 °F /  -0.8 °C 23.6 °F /  -4.7 °C 30.01in /  1016.1hPa NW 0.8mph /  1.3km/h 5mph /  8km/h 75% 0.00in /  0mm 0 W/m2
06:14 30.5 °F /  -0.8 °C 23.5 °F /  -4.7 °C 30.00in /  1015.8hPa NW 0.8mph /  1.3km/h 6mph /  9.7km/h 75% 0.00in /  0mm 0 W/m2
06:19 30.5 °F /  -0.8 °C 23.5 °F /  -4.7 °C 30.01in /  1016.1hPa NW 1.1mph /  1.8km/h 6mph /  9.7km/h 75% 0.00in /  0mm 0 W/m2
06:24 30.5 °F /  -0.8 °C 23.5 °F /  -4.7 °C 30.01in /  1016.1hPa NNW 1.2mph /  1.9km/h 6mph /  9.7km/h 75% 0.00in /  0mm 0 W/m2
06:29 30.5 °F /  -0.8 °C 23.5 °F /  -4.7 °C 30.01in /  1016.1hPa NW 0.3mph /  0.5km/h 6mph /  9.7km/h 75% 0.00in /  0mm 0 W/m2
06:34 30.5 °F /  -0.8 °C 23.5 °F /  -4.7 °C 30.02in /  1016.5hPa NW 0.3mph /  0.5km/h 6mph /  9.7km/h 75% 0.00in /  0mm 0 W/m2
06:39 30.5 °F /  -0.8 °C 23.6 °F /  -4.7 °C 30.02in /  1016.5hPa NW 1.8mph /  2.9km/h 6mph /  9.7km/h 75% 0.00in /  0mm 0 W/m2
06:44 30.6 °F /  -0.8 °C 23.6 °F /  -4.7 °C 30.02in /  1016.5hPa NW 0.1mph /  0.2km/h 6mph /  9.7km/h 74.9% 0.00in /  0mm 0 W/m2
06:49 30.6 °F /  -0.8 °C 23.6 °F /  -4.7 °C 30.02in /  1016.5hPa NW 0.9mph /  1.4km/h 6mph /  9.7km/h 74.9% 0.00in /  0mm 0 W/m2
06:54 30.5 °F /  -0.8 °C 23.5 °F /  -4.7 °C 30.03in /  1016.8hPa NW 0.2mph /  0.3km/h 6mph /  9.7km/h 74.8% 0.00in /  0mm 0 W/m2
06:59 30.5 °F /  -0.8 °C 23.5 °F /  -4.7 °C 30.03in /  1016.8hPa NW 1.5mph /  2.4km/h 6mph /  9.7km/h 75% 0.00in /  0mm 0 W/m2
07:04 30.5 °F /  -0.8 °C 23.4 °F /  -4.8 °C 30.03in /  1016.8hPa NNW 2.3mph /  3.7km/h 7mph /  11.3km/h 74.4% 0.00in /  0mm 0 W/m2
07:09 30.5 °F /  -0.8 °C 23.3 °F /  -4.8 °C 30.03in /  1016.8hPa NW 0.7mph /  1.1km/h 7mph /  11.3km/h 74.3% 0.00in /  0mm 0 W/m2
07:14 30.5 °F /  -0.8 °C 23.2 °F /  -4.9 °C 30.03in /  1016.8hPa NNW 0.9mph /  1.4km/h 7mph /  11.3km/h 74% 0.00in /  0mm 0 W/m2
07:19 30.5 °F /  -0.8 °C 23.2 °F /  -4.9 °C 30.03in /  1016.8hPa NNW 1.6mph /  2.6km/h 7mph /  11.3km/h 74% 0.00in /  0mm 0 W/m2
07:24 30.5 °F /  -0.8 °C 23.2 °F /  -4.9 °C 30.03in /  1016.8hPa NNW 0.8mph /  1.3km/h 7mph /  11.3km/h 74% 0.00in /  0mm 5 W/m2
07:29 30.4 °F /  -0.9 °C 23.1 °F /  -4.9 °C 30.04in /  1017.2hPa NNW 1.3mph /  2.1km/h 7mph /  11.3km/h 74% 0.00in /  0mm 7 W/m2
07:34 30.4 °F /  -0.9 °C 23.1 °F /  -4.9 °C 30.04in /  1017.2hPa NNW 0.8mph /  1.3km/h 7mph /  11.3km/h 74% 0.00in /  0mm 9 W/m2
07:39 30.4 °F /  -0.9 °C 23.2 °F /  -4.9 °C 30.04in /  1017.2hPa NNW 0.4mph /  0.6km/h 6mph /  9.7km/h 74.3% 0.00in /  0mm 9 W/m2
07:44 30.3 °F /  -0.9 °C 23.3 °F /  -4.8 °C 30.04in /  1017.2hPa NNW 1.7mph /  2.7km/h 7mph /  11.3km/h 75% 0.00in /  0mm 11 W/m2
07:49 30.3 °F /  -0.9 °C 23.3 °F /  -4.8 °C 30.04in /  1017.2hPa NNW 0.2mph /  0.3km/h 7mph /  11.3km/h 75% 0.00in /  0mm 19 W/m2
07:54 30.3 °F /  -0.9 °C 23.4 °F /  -4.8 °C 30.04in /  1017.2hPa NNW 0.2mph /  0.3km/h 7mph /  11.3km/h 75% 0.00in /  0mm 23 W/m2
07:59 30.4 °F /  -0.9 °C 23.4 °F /  -4.8 °C 30.04in /  1017.2hPa NNW 0.8mph /  1.3km/h 7mph /  11.3km/h 75% 0.00in /  0mm 14 W/m2
08:04 30.4 °F /  -0.9 °C 23.4 °F /  -4.8 °C 30.04in /  1017.2hPa NNW 4mph /  6.4km/h 4mph /  6.4km/h 75% 0.00in /  0mm 44 W/m2
08:09 30.6 °F /  -0.8 °C 23.6 °F /  -4.7 °C 30.05in /  1017.5hPa NNW 1.6mph /  2.6km/h 6mph /  9.7km/h 75% 0.00in /  0mm 69 W/m2
08:14 30.9 °F /  -0.6 °C 24 °F /  -4.4 °C 30.05in /  1017.5hPa NNW 0.2mph /  0.3km/h 6mph /  9.7km/h 75% 0.00in /  0mm 95 W/m2
08:19 31.6 °F /  -0.2 °C 24.5 °F /  -4.2 °C 30.05in /  1017.5hPa NNW 1mph /  1.6km/h 6mph /  9.7km/h 74.8% 0.00in /  0mm 100 W/m2
08:24 32.3 °F /  0.2 °C 24.7 °F /  -4.1 °C 30.06in /  1017.8hPa NNW 1.6mph /  2.6km/h 6mph /  9.7km/h 73.2% 0.00in /  0mm 100 W/m2
08:29 32.8 °F /  0.4 °C 24.9 °F /  -3.9 °C 30.05in /  1017.5hPa NNW 1.8mph /  2.9km/h 6mph /  9.7km/h 72.4% 0.00in /  0mm 98 W/m2
08:34 33.2 °F /  0.7 °C 24.7 °F /  -4.1 °C 30.06in /  1017.8hPa NNW 2.1mph /  3.4km/h 7mph /  11.3km/h 70.6% 0.00in /  0mm 53 W/m2
08:39 33.3 °F /  0.7 °C 24.6 °F /  -4.1 °C 30.05in /  1017.5hPa NW 2.4mph /  3.9km/h 10mph /  16.1km/h 70% 0.00in /  0mm 95 W/m2
08:44 33.4 °F /  0.8 °C 24.6 °F /  -4.1 °C 30.05in /  1017.5hPa NW 2.5mph /  4km/h 10mph /  16.1km/h 69.6% 0.00in /  0mm 100 W/m2
08:49 33.5 °F /  0.8 °C 24.4 °F /  -4.2 °C 30.05in /  1017.5hPa NW 3.9mph /  6.3km/h 14mph /  22.5km/h 68.9% 0.00in /  0mm 163 W/m2
08:54 33.7 °F /  0.9 °C 24.4 °F /  -4.2 °C 30.05in /  1017.5hPa NNW 3.8mph /  6.1km/h 14mph /  22.5km/h 68.4% 0.00in /  0mm 163 W/m2
08:59 33.8 °F /  1 °C 24.9 °F /  -3.9 °C 30.06in /  1017.8hPa NW 6.7mph /  10.8km/h 14mph /  22.5km/h 69.6% 0.00in /  0mm 97 W/m2
09:04 33.7 °F /  0.9 °C 24 °F /  -4.4 °C 30.06in /  1017.8hPa NW 4.6mph /  7.4km/h 15mph /  24.1km/h 67.3% 0.00in /  0mm 156 W/m2
09:09 33.8 °F /  1 °C 24.4 °F /  -4.2 °C 30.06in /  1017.8hPa NNW 3.8mph /  6.1km/h 16mph /  25.7km/h 68% 0.00in /  0mm 156 W/m2
09:14 34.1 °F /  1.2 °C 24.6 °F /  -4.1 °C 30.06in /  1017.8hPa NW 2.1mph /  3.4km/h 16mph /  25.7km/h 67.8% 0.00in /  0mm 139 W/m2
09:19 34.4 °F /  1.3 °C 24.5 °F /  -4.2 °C 30.06in /  1017.8hPa NW 3.1mph /  5km/h 16mph /  25.7km/h 66.8% 0.00in /  0mm 135 W/m2
09:24 34.5 °F /  1.4 °C 24.4 °F /  -4.2 °C 30.06in /  1017.8hPa NW 4.5mph /  7.2km/h 16mph /  25.7km/h 66% 0.00in /  0mm 179 W/m2
09:29 34.5 °F /  1.4 °C 24.1 °F /  -4.4 °C 30.06in /  1017.8hPa NW 4.1mph /  6.6km/h 16mph /  25.7km/h 65.4% 0.00in /  0mm 141 W/m2
09:34 34.5 °F /  1.4 °C 24 °F /  -4.4 °C 30.06in /  1017.8hPa WNW 5.9mph /  9.5km/h 16mph /  25.7km/h 65.2% 0.00in /  0mm 155 W/m2
09:39 34.5 °F /  1.4 °C 24 °F /  -4.4 °C 30.06in /  1017.8hPa NW 7.6mph /  12.2km/h 15mph /  24.1km/h 65% 0.00in /  0mm 172 W/m2
09:44 34.6 °F /  1.4 °C 24 °F /  -4.4 °C 30.06in /  1017.8hPa NNW 5.7mph /  9.2km/h 15mph /  24.1km/h 64.8% 0.00in /  0mm 116 W/m2
09:49 34.7 °F /  1.5 °C 24.2 °F /  -4.3 °C 30.06in /  1017.8hPa NW 1.8mph /  2.9km/h 15mph /  24.1km/h 65% 0.00in /  0mm 81 W/m2
09:54 34.9 °F /  1.6 °C 24.2 °F /  -4.3 °C 30.06in /  1017.8hPa NW 5.1mph /  8.2km/h 15mph /  24.1km/h 64.7% 0.00in /  0mm 95 W/m2
09:59 35.1 °F /  1.7 °C 24.1 °F /  -4.4 °C 30.05in /  1017.5hPa NNW 5.7mph /  9.2km/h 17mph /  27.4km/h 64% 0.00in /  0mm 63 W/m2
10:04 35.1 °F /  1.7 °C 23.9 °F /  -4.5 °C 30.05in /  1017.5hPa NW 6mph /  9.7km/h 17mph /  27.4km/h 63.2% 0.00in /  0mm 90 W/m2
10:09 35.2 °F /  1.8 °C 23.9 °F /  -4.5 °C 30.05in /  1017.5hPa NNW 5.8mph /  9.3km/h 15mph /  24.1km/h 63% 0.00in /  0mm 121 W/m2
10:14 35.4 °F /  1.9 °C 24.1 °F /  -4.4 °C 30.05in /  1017.5hPa NW 6mph /  9.7km/h 15mph /  24.1km/h 62.9% 0.00in /  0mm 162 W/m2
10:19 35.7 °F /  2.1 °C 24 °F /  -4.4 °C 30.05in /  1017.5hPa NW 5.9mph /  9.5km/h 15mph /  24.1km/h 62% 0.00in /  0mm 290 W/m2
10:24 36.3 °F /  2.4 °C 24.5 °F /  -4.2 °C 30.05in /  1017.5hPa NNW 2.7mph /  4.3km/h 15mph /  24.1km/h 62% 0.00in /  0mm 364 W/m2
10:29 37 °F /  2.8 °C 25 °F /  -3.9 °C 30.04in /  1017.2hPa NW 5mph /  8km/h 15mph /  24.1km/h 61.5% 0.00in /  0mm 364 W/m2
10:34 38 °F /  3.3 °C 25.4 °F /  -3.7 °C 30.04in /  1017.2hPa NW 5.4mph /  8.7km/h 15mph /  24.1km/h 60% 0.00in /  0mm 415 W/m2
10:39 38.7 °F /  3.7 °C 25.2 °F /  -3.8 °C 30.03in /  1016.8hPa NW 7mph /  11.3km/h 13mph /  20.9km/h 57.9% 0.00in /  0mm 434 W/m2
10:44 39.1 °F /  3.9 °C 25.2 °F /  -3.8 °C 30.03in /  1016.8hPa NW 3.6mph /  5.8km/h 13mph /  20.9km/h 57% 0.00in /  0mm 445 W/m2
10:49 39.5 °F /  4.2 °C 25.6 °F /  -3.6 °C 30.03in /  1016.8hPa NNW 4mph /  6.4km/h 14mph /  22.5km/h 57% 0.00in /  0mm 448 W/m2
10:54 40.1 °F /  4.5 °C 25.9 °F /  -3.4 °C 30.03in /  1016.8hPa NNW 5mph /  8km/h 14mph /  22.5km/h 56.7% 0.00in /  0mm 422 W/m2
10:59 40.5 °F /  4.7 °C 25.7 °F /  -3.5 °C 30.03in /  1016.8hPa NNW 3.8mph /  6.1km/h 14mph /  22.5km/h 55.1% 0.00in /  0mm 378 W/m2
11:04 40.8 °F /  4.9 °C 26 °F /  -3.3 °C 30.03in /  1016.8hPa NW 3.2mph /  5.1km/h 14mph /  22.5km/h 55.3% 0.00in /  0mm 332 W/m2
11:09 40.9 °F /  4.9 °C 25.6 °F /  -3.6 °C 30.03in /  1016.8hPa NW 3.5mph /  5.6km/h 13mph /  20.9km/h 54% 0.00in /  0mm 165 W/m2
11:14 41.2 °F /  5.1 °C 26 °F /  -3.3 °C 30.03in /  1016.8hPa NW 4.7mph /  7.6km/h 13mph /  20.9km/h 54.4% 0.00in /  0mm 292 W/m2
11:19 41.2 °F /  5.1 °C 25.2 °F /  -3.8 °C 30.03in /  1016.8hPa WNW 4.9mph /  7.9km/h 13mph /  20.9km/h 52.7% 0.00in /  0mm 257 W/m2
11:24 40.9 °F /  4.9 °C 26 °F /  -3.3 °C 30.02in /  1016.5hPa WNW 2.4mph /  3.9km/h 13mph /  20.9km/h 54.8% 0.00in /  0mm 169 W/m2
11:29 40.9 °F /  4.9 °C 25.6 °F /  -3.6 °C 30.02in /  1016.5hPa NW 4.6mph /  7.4km/h 13mph /  20.9km/h 54.1% 0.00in /  0mm 288 W/m2
11:34 40.9 °F /  4.9 °C 25.5 °F /  -3.6 °C 30.01in /  1016.1hPa NW 3.4mph /  5.5km/h 13mph /  20.9km/h 54% 0.00in /  0mm 309 W/m2
11:39 40.8 °F /  4.9 °C 25.6 °F /  -3.6 °C 30.01in /  1016.1hPa WNW 4mph /  6.4km/h 10mph /  16.1km/h 54.3% 0.00in /  0mm 144 W/m2
11:44 40.8 °F /  4.9 °C 25.4 °F /  -3.7 °C 30.01in /  1016.1hPa WNW 5.9mph /  9.5km/h 12mph /  19.3km/h 54% 0.00in /  0mm 197 W/m2
11:49 40.9 °F /  4.9 °C 25.8 °F /  -3.4 °C 30.01in /  1016.1hPa NW 3.3mph /  5.3km/h 12mph /  19.3km/h 54.7% 0.00in /  0mm 225 W/m2
11:54 41.3 °F /  5.2 °C 25.9 °F /  -3.4 °C 30.01in /  1016.1hPa NNW 2mph /  3.2km/h 12mph /  19.3km/h 53.8% 0.00in /  0mm 279 W/m2
11:59 41.9 °F /  5.5 °C 26.2 °F /  -3.2 °C 30.01in /  1016.1hPa WNW 5.9mph /  9.5km/h 12mph /  19.3km/h 53.3% 0.00in /  0mm 244 W/m2
12:00 42 °F /  5.6 °C 25.7 °F /  -3.5 °C 30.01in /  1016.1hPa NW 4mph /  6.4km/h 12mph /  19.3km/h 52% 0.00in /  0mm 244 W/m2
12:09 41.8 °F /  5.4 °C 25.7 °F /  -3.5 °C 30.01in /  1016.1hPa NW 3.6mph /  5.8km/h 10mph /  16.1km/h 52.5% 0.00in /  0mm 243 W/m2
12:14 41.7 °F /  5.4 °C 25.9 °F /  -3.4 °C 30.00in /  1015.8hPa WNW 7mph /  11.3km/h 15mph /  24.1km/h 53.2% 0.00in /  0mm 313 W/m2
12:19 41.7 °F /  5.4 °C 26 °F /  -3.3 °C 30.00in /  1015.8hPa NW 4.6mph /  7.4km/h 15mph /  24.1km/h 53.4% 0.00in /  0mm 631 W/m2
12:24 42.1 °F /  5.6 °C 26.6 °F /  -3 °C 30.00in /  1015.8hPa NW 5.5mph /  8.9km/h 15mph /  24.1km/h 54% 0.00in /  0mm 631 W/m2
12:29 42.4 °F /  5.8 °C 26.3 °F /  -3.2 °C 30.00in /  1015.8hPa NW 3.2mph /  5.1km/h 15mph /  24.1km/h 52.7% 0.00in /  0mm 246 W/m2
12:34 42.3 °F /  5.7 °C 26.2 °F /  -3.2 °C 30.00in /  1015.8hPa NW 6.5mph /  10.5km/h 15mph /  24.1km/h 52.5% 0.00in /  0mm 237 W/m2
12:39 41.8 °F /  5.4 °C 25.5 °F /  -3.6 °C 30.00in /  1015.8hPa NW 6.7mph /  10.8km/h 15mph /  24.1km/h 52% 0.00in /  0mm 146 W/m2
12:44 41.2 °F /  5.1 °C 25.2 °F /  -3.8 °C 30.00in /  1015.8hPa NNW 6.2mph /  10km/h 15mph /  24.1km/h 52.5% 0.00in /  0mm 113 W/m2
12:49 40.8 °F /  4.9 °C 25.1 °F /  -3.8 °C 30.00in /  1015.8hPa NNW 3.6mph /  5.8km/h 15mph /  24.1km/h 53.1% 0.00in /  0mm 130 W/m2
12:54 40.6 °F /  4.8 °C 25.4 °F /  -3.7 °C 30.00in /  1015.8hPa NW 6.6mph /  10.6km/h 15mph /  24.1km/h 54.4% 0.00in /  0mm 130 W/m2
12:59 40.1 °F /  4.5 °C 25.1 °F /  -3.8 °C 30.00in /  1015.8hPa WNW 5.6mph /  9km/h 15mph /  24.1km/h 54.6% 0.00in /  0mm 123 W/m2
13:04 39.7 °F /  4.3 °C 25 °F /  -3.9 °C 30.00in /  1015.8hPa WNW 6.8mph /  10.9km/h 15mph /  24.1km/h 55.3% 0.00in /  0mm 116 W/m2
13:09 39.3 °F /  4.1 °C 25 °F /  -3.9 °C 30.00in /  1015.8hPa NW 5.2mph /  8.4km/h 13mph /  20.9km/h 56.2% 0.00in /  0mm 139 W/m2
13:14 39.1 °F /  3.9 °C 25 °F /  -3.9 °C 30.00in /  1015.8hPa NW 5.8mph /  9.3km/h 13mph /  20.9km/h 56.5% 0.00in /  0mm 146 W/m2
13:19 39 °F /  3.9 °C 25.1 °F /  -3.8 °C 30.00in /  1015.8hPa NW 3.5mph /  5.6km/h 13mph /  20.9km/h 57% 0.00in /  0mm 135 W/m2
13:24 39.1 °F /  3.9 °C 25.3 °F /  -3.7 °C 30.00in /  1015.8hPa NW 4.8mph /  7.7km/h 14mph /  22.5km/h 57.4% 0.00in /  0mm 130 W/m2
13:29 39.2 °F /  4 °C 25.4 °F /  -3.7 °C 30.00in /  1015.8hPa NW 4.4mph /  7.1km/h 14mph /  22.5km/h 57.4% 0.00in /  0mm 202 W/m2
13:34 39.4 °F /  4.1 °C 25.7 °F /  -3.5 °C 30.00in /  1015.8hPa NW 2mph /  3.2km/h 14mph /  22.5km/h 57.6% 0.00in /  0mm 330 W/m2
13:39 39.9 °F /  4.4 °C 26 °F /  -3.3 °C 30.00in /  1015.8hPa NW 1.7mph /  2.7km/h 6mph /  9.7km/h 57.2% 0.00in /  0mm 323 W/m2
13:44 40.4 °F /  4.7 °C 26.1 °F /  -3.3 °C 30.00in /  1015.8hPa NW 7.2mph /  11.6km/h 16mph /  25.7km/h 56.2% 0.00in /  0mm 162 W/m2
13:49 40.6 °F /  4.8 °C 25.6 °F /  -3.6 °C 30.00in /  1015.8hPa NW 7.1mph /  11.4km/h 16mph /  25.7km/h 54.8% 0.00in /  0mm 137 W/m2
13:54 40.5 °F /  4.7 °C 25.4 °F /  -3.7 °C 30.00in /  1015.8hPa NNW 4mph /  6.4km/h 16mph /  25.7km/h 54.4% 0.00in /  0mm 113 W/m2
13:59 40.5 °F /  4.7 °C 25.1 °F /  -3.8 °C 30.00in /  1015.8hPa NW 7.1mph /  11.4km/h 16mph /  25.7km/h 53.9% 0.00in /  0mm 186 W/m2
14:04 40.2 °F /  4.6 °C 24.9 °F /  -3.9 °C 30.01in /  1016.1hPa NW 7.2mph /  11.6km/h 16mph /  25.7km/h 54% 0.00in /  0mm 146 W/m2
14:09 40 °F /  4.4 °C 24.8 °F /  -4 °C 30.01in /  1016.1hPa NW 6.1mph /  9.8km/h 16mph /  25.7km/h 54% 0.00in /  0mm 209 W/m2
14:14 40 °F /  4.4 °C 24.7 °F /  -4.1 °C 30.00in /  1015.8hPa NW 3.8mph /  6.1km/h 16mph /  25.7km/h 54% 0.00in /  0mm 204 W/m2
14:19 40.1 °F /  4.5 °C 24.8 °F /  -4 °C 30.01in /  1016.1hPa NW 6.1mph /  9.8km/h 16mph /  25.7km/h 54% 0.00in /  0mm 158 W/m2
14:24 40.2 °F /  4.6 °C 24.9 °F /  -3.9 °C 30.01in /  1016.1hPa NW 7.7mph /  12.4km/h 17mph /  27.4km/h 54% 0.00in /  0mm 158 W/m2
14:29 40.3 °F /  4.6 °C 25 °F /  -3.9 °C 30.01in /  1016.1hPa NW 4.5mph /  7.2km/h 17mph /  27.4km/h 54% 0.00in /  0mm 134 W/m2
14:34 40.4 °F /  4.7 °C 25.1 °F /  -3.8 °C 30.01in /  1016.1hPa NW 2.6mph /  4.2km/h 17mph /  27.4km/h 54% 0.00in /  0mm 132 W/m2
14:39 40.5 °F /  4.7 °C 25.2 °F /  -3.8 °C 30.01in /  1016.1hPa NW 2.3mph /  3.7km/h 12mph /  19.3km/h 54.1% 0.00in /  0mm 214 W/m2
14:40 40.6 °F /  4.8 °C 25.4 °F /  -3.7 °C 30.01in /  1016.1hPa WNW 4.3mph /  6.9km/h 12mph /  19.3km/h 54.3% 0.00in /  0mm 28 W/m2
15:00 40.2 °F /  4.6 °C 25.3 °F /  -3.7 °C 30.01in /  1016.1hPa WNW 4mph /  6.4km/h 13mph /  20.9km/h 55% 0.00in /  0mm 53 W/m2
15:30 39.2 °F /  4 °C 24.8 °F /  -4 °C 30.02in /  1016.5hPa NW 5mph /  8km/h 14mph /  22.5km/h 56% 0.00in /  0mm 22 W/m2
16:04 37.6 °F /  3.1 °C 24.1 °F /  -4.4 °C 30.03in /  1016.8hPa NNW 4.2mph /  6.8km/h 14mph /  22.5km/h 57.8% 0.00in /  0mm 22 W/m2
16:09 37.4 °F /  3 °C 23.9 °F /  -4.5 °C 30.04in /  1017.2hPa NW 6.3mph /  10.1km/h 11mph /  17.7km/h 58% 0.00in /  0mm 12 W/m2
16:14 37.2 °F /  2.9 °C 23.8 °F /  -4.6 °C 30.04in /  1017.2hPa NW 7mph /  11.3km/h 15mph /  24.1km/h 58% 0.00in /  0mm 11 W/m2
16:19 37 °F /  2.8 °C 23.6 °F /  -4.7 °C 30.04in /  1017.2hPa NW 4.6mph /  7.4km/h 15mph /  24.1km/h 58% 0.00in /  0mm 11 W/m2
16:24 36.9 °F /  2.7 °C 23.6 °F /  -4.7 °C 30.04in /  1017.2hPa NW 1.8mph /  2.9km/h 15mph /  24.1km/h 58.4% 0.00in /  0mm 9 W/m2
16:29 36.7 °F /  2.6 °C 23.7 °F /  -4.6 °C 30.04in /  1017.2hPa NW 3.4mph /  5.5km/h 15mph /  24.1km/h 59% 0.00in /  0mm 7 W/m2
16:34 36.5 °F /  2.5 °C 23.6 °F /  -4.7 °C 30.03in /  1016.8hPa NW 1.9mph /  3.1km/h 15mph /  24.1km/h 59.3% 0.00in /  0mm 0 W/m2
16:39 36.3 °F /  2.4 °C 23.8 °F /  -4.6 °C 30.04in /  1017.2hPa NW 2mph /  3.2km/h 10mph /  16.1km/h 60% 0.00in /  0mm 0 W/m2
16:44 36.1 °F /  2.3 °C 23.6 °F /  -4.7 °C 30.04in /  1017.2hPa NW 2mph /  3.2km/h 10mph /  16.1km/h 60% 0.00in /  0mm 0 W/m2
16:49 36 °F /  2.2 °C 23.7 °F /  -4.6 °C 30.04in /  1017.2hPa NW 0.7mph /  1.1km/h 10mph /  16.1km/h 60.7% 0.00in /  0mm 0 W/m2
16:54 35.8 °F /  2.1 °C 23.7 °F /  -4.6 °C 30.04in /  1017.2hPa NW 0.4mph /  0.6km/h 10mph /  16.1km/h 61% 0.00in /  0mm 0 W/m2
16:59 35.6 °F /  2 °C 23.8 °F /  -4.6 °C 30.05in /  1017.5hPa WNW 1mph /  1.6km/h 10mph /  16.1km/h 61.6% 0.00in /  0mm 0 W/m2
17:04 35.5 °F /  1.9 °C 23.7 °F /  -4.6 °C 30.05in /  1017.5hPa WNW 1.2mph /  1.9km/h 6mph /  9.7km/h 62% 0.00in /  0mm 0 W/m2
17:09 35.3 °F /  1.8 °C 23.6 °F /  -4.7 °C 30.05in /  1017.5hPa WNW 0.5mph /  0.8km/h 6mph /  9.7km/h 62.2% 0.00in /  0mm 0 W/m2
17:14 35.1 °F /  1.7 °C 23.8 °F /  -4.6 °C 30.05in /  1017.5hPa WNW 1.4mph /  2.3km/h 6mph /  9.7km/h 63% 0.00in /  0mm 0 W/m2
17:19 34.9 °F /  1.6 °C 23.7 °F /  -4.6 °C 30.05in /  1017.5hPa WNW 0.7mph /  1.1km/h 6mph /  9.7km/h 63.2% 0.00in /  0mm 0 W/m2
17:24 34.8 °F /  1.6 °C 23.5 °F /  -4.7 °C 30.05in /  1017.5hPa WNW 0.8mph /  1.3km/h 6mph /  9.7km/h 63% 0.00in /  0mm 0 W/m2
17:29 34.6 °F /  1.4 °C 23.7 °F /  -4.6 °C 30.05in /  1017.5hPa WNW 0.7mph /  1.1km/h 6mph /  9.7km/h 64% 0.00in /  0mm 0 W/m2
17:34 34.5 °F /  1.4 °C 23.6 °F /  -4.7 °C 30.04in /  1017.2hPa NW 1.7mph /  2.7km/h 11mph /  17.7km/h 64% 0.00in /  0mm 0 W/m2
17:39 34.3 °F /  1.3 °C 23.4 °F /  -4.8 °C 30.05in /  1017.5hPa WNW 2.2mph /  3.5km/h 11mph /  17.7km/h 64% 0.00in /  0mm 0 W/m2
17:44 34.3 °F /  1.3 °C 23.4 °F /  -4.8 °C 30.05in /  1017.5hPa WNW 2.1mph /  3.4km/h 11mph /  17.7km/h 64% 0.00in /  0mm 0 W/m2
17:49 34.2 °F /  1.2 °C 23.3 °F /  -4.8 °C 30.05in /  1017.5hPa WNW 0.8mph /  1.3km/h 11mph /  17.7km/h 64% 0.00in /  0mm 0 W/m2
17:54 34.1 °F /  1.2 °C 23.2 °F /  -4.9 °C 30.05in /  1017.5hPa NW 1.9mph /  3.1km/h 11mph /  17.7km/h 64.2% 0.00in /  0mm 0 W/m2
17:59 33.9 °F /  1.1 °C 23.2 °F /  -4.9 °C 30.05in /  1017.5hPa NW 3.3mph /  5.3km/h 11mph /  17.7km/h 64.4% 0.00in /  0mm 0 W/m2
18:04 33.9 °F /  1.1 °C 23.3 °F /  -4.8 °C 30.05in /  1017.5hPa NW 3.6mph /  5.8km/h 11mph /  17.7km/h 64.8% 0.00in /  0mm 0 W/m2
18:09 33.8 °F /  1 °C 23.3 °F /  -4.8 °C 30.06in /  1017.8hPa NW 2.2mph /  3.5km/h 10mph /  16.1km/h 65% 0.00in /  0mm 0 W/m2
18:14 33.8 °F /  1 °C 23.3 °F /  -4.8 °C 30.06in /  1017.8hPa NW 0.8mph /  1.3km/h 10mph /  16.1km/h 65% 0.00in /  0mm 0 W/m2
18:19 33.7 °F /  0.9 °C 23.2 °F /  -4.9 °C 30.05in /  1017.5hPa NW 3.6mph /  5.8km/h 11mph /  17.7km/h 65% 0.00in /  0mm 0 W/m2
18:24 33.6 °F /  0.9 °C 23.1 °F /  -4.9 °C 30.05in /  1017.5hPa NW 3.8mph /  6.1km/h 11mph /  17.7km/h 65% 0.00in /  0mm 0 W/m2
18:29 33.6 °F /  0.9 °C 23.1 °F /  -4.9 °C 30.05in /  1017.5hPa NW 1.3mph /  2.1km/h 11mph /  17.7km/h 65% 0.00in /  0mm 0 W/m2
18:34 33.5 °F /  0.8 °C 23.1 °F /  -4.9 °C 30.06in /  1017.8hPa NW 1.7mph /  2.7km/h 11mph /  17.7km/h 65% 0.00in /  0mm 0 W/m2
18:39 33.5 °F /  0.8 °C 23 °F /  -5 °C 30.06in /  1017.8hPa NW 1.3mph /  2.1km/h 7mph /  11.3km/h 65% 0.00in /  0mm 0 W/m2
18:44 33.4 °F /  0.8 °C 23.3 °F /  -4.8 °C 30.06in /  1017.8hPa NW 1.8mph /  2.9km/h 7mph /  11.3km/h 65.9% 0.00in /  0mm 0 W/m2
18:49 33.3 °F /  0.7 °C 23.2 °F /  -4.9 °C 30.06in /  1017.8hPa NW 1.8mph /  2.9km/h 7mph /  11.3km/h 66% 0.00in /  0mm 0 W/m2
18:54 33.3 °F /  0.7 °C 23.2 °F /  -4.9 °C 30.06in /  1017.8hPa NW 1.3mph /  2.1km/h 7mph /  11.3km/h 66% 0.00in /  0mm 0 W/m2
18:59 33.2 °F /  0.7 °C 23.1 °F /  -4.9 °C 30.06in /  1017.8hPa NW 1.3mph /  2.1km/h 7mph /  11.3km/h 66% 0.00in /  0mm 0 W/m2
19:04 33.2 °F /  0.7 °C 23.2 °F /  -4.9 °C 30.06in /  1017.8hPa NNW 0.7mph /  1.1km/h 7mph /  11.3km/h 66.2% 0.00in /  0mm 0 W/m2
19:09 33.1 °F /  0.6 °C 23.1 °F /  -4.9 °C 30.06in /  1017.8hPa NNW 0.3mph /  0.5km/h 4mph /  6.4km/h 66.1% 0.00in /  0mm 0 W/m2
19:14 33 °F /  0.6 °C 23.3 °F /  -4.8 °C 30.06in /  1017.8hPa NW 1.2mph /  1.9km/h 5mph /  8km/h 67% 0.00in /  0mm 0 W/m2
19:19 33 °F /  0.6 °C 23.2 °F /  -4.9 °C 30.06in /  1017.8hPa NW 1mph /  1.6km/h 6mph /  9.7km/h 67% 0.00in /  0mm 0 W/m2
19:24 32.9 °F /  0.5 °C 23.2 °F /  -4.9 °C 30.07in /  1018.2hPa NW 1.5mph /  2.4km/h 11mph /  17.7km/h 67% 0.00in /  0mm 0 W/m2
19:29 32.9 °F /  0.5 °C 23.3 °F /  -4.8 °C 30.07in /  1018.2hPa NW 0.8mph /  1.3km/h 11mph /  17.7km/h 67.5% 0.00in /  0mm 0 W/m2
19:34 32.8 °F /  0.4 °C 23.4 °F /  -4.8 °C 30.07in /  1018.2hPa NW 0.5mph /  0.8km/h 11mph /  17.7km/h 68% 0.00in /  0mm 0 W/m2
19:39 32.7 °F /  0.4 °C 23.3 °F /  -4.8 °C 30.07in /  1018.2hPa NW 0.6mph /  1km/h 4mph /  6.4km/h 68.1% 0.00in /  0mm 0 W/m2
19:44 32.7 °F /  0.4 °C 23.7 °F /  -4.6 °C 30.06in /  1017.8hPa NW 0.7mph /  1.1km/h 4mph /  6.4km/h 69% 0.00in /  0mm 0 W/m2
19:49 32.8 °F /  0.4 °C 23.7 °F /  -4.6 °C 30.06in /  1017.8hPa NW 0.9mph /  1.4km/h 4mph /  6.4km/h 69% 0.00in /  0mm 0 W/m2
19:54 32.8 °F /  0.4 °C 23.8 °F /  -4.6 °C 30.06in /  1017.8hPa NNW 2.1mph /  3.4km/h 6mph /  9.7km/h 69% 0.00in /  0mm 0 W/m2
19:59 32.8 °F /  0.4 °C 23.8 °F /  -4.6 °C 30.06in /  1017.8hPa NNW 0.7mph /  1.1km/h 6mph /  9.7km/h 69.2% 0.00in /  0mm 0 W/m2
20:04 32.8 °F /  0.4 °C 24.1 °F /  -4.4 °C 30.06in /  1017.8hPa NNW 0.3mph /  0.5km/h 1mph /  1.6km/h 70% 0.00in /  0mm 0 W/m2
20:09 32.8 °F /  0.4 °C 24.1 °F /  -4.4 °C 30.06in /  1017.8hPa NNW 1.3mph /  2.1km/h 6mph /  9.7km/h 70% 0.00in /  0mm 0 W/m2
20:14 32.8 °F /  0.4 °C 24.1 °F /  -4.4 °C 30.06in /  1017.8hPa NNW 1.1mph /  1.8km/h 6mph /  9.7km/h 70% 0.00in /  0mm 0 W/m2
20:19 32.8 °F /  0.4 °C 24.1 °F /  -4.4 °C 30.06in /  1017.8hPa NNW 0.2mph /  0.3km/h 6mph /  9.7km/h 70% 0.00in /  0mm 0 W/m2
20:24 32.7 °F /  0.4 °C 24 °F /  -4.4 °C 30.06in /  1017.8hPa NNW 0.5mph /  0.8km/h 6mph /  9.7km/h 70% 0.00in /  0mm 0 W/m2
20:29 32.6 °F /  0.3 °C 23.9 °F /  -4.5 °C 30.05in /  1017.5hPa NNW 0.3mph /  0.5km/h 6mph /  9.7km/h 70% 0.00in /  0mm 0 W/m2
20:34 32.5 °F /  0.3 °C 24 °F /  -4.4 °C 30.05in /  1017.5hPa NNW 0.2mph /  0.3km/h 6mph /  9.7km/h 70.7% 0.00in /  0mm 0 W/m2
20:39 32.3 °F /  0.2 °C 23.7 °F /  -4.6 °C 30.05in /  1017.5hPa NNW 0.1mph /  0.2km/h 3mph /  4.8km/h 70.2% 0.00in /  0mm 0 W/m2
20:44 32.1 °F /  0.1 °C 23.7 °F /  -4.6 °C 30.05in /  1017.5hPa NW 1.6mph /  2.6km/h 7mph /  11.3km/h 71% 0.00in /  0mm 0 W/m2
20:49 31.9 °F /  -0.1 °C 23.6 °F /  -4.7 °C 30.05in /  1017.5hPa NNW 1.1mph /  1.8km/h 7mph /  11.3km/h 71% 0.00in /  0mm 0 W/m2
20:54 31.7 °F /  -0.2 °C 23.7 °F /  -4.6 °C 30.06in /  1017.8hPa NNW 0.5mph /  0.8km/h 7mph /  11.3km/h 71.8% 0.00in /  0mm 0 W/m2
20:59 31.6 °F /  -0.2 °C 23.6 °F /  -4.7 °C 30.06in /  1017.8hPa NNW 0.2mph /  0.3km/h 7mph /  11.3km/h 72% 0.00in /  0mm 0 W/m2
21:04 31.5 °F /  -0.3 °C 23.5 °F /  -4.7 °C 30.06in /  1017.8hPa NNW 0.4mph /  0.6km/h 7mph /  11.3km/h 72% 0.00in /  0mm 0 W/m2
21:09 31.4 °F /  -0.3 °C 23.6 °F /  -4.7 °C 30.06in /  1017.8hPa Calm   4mph /  6.4km/h 72.7% 0.00in /  0mm 0 W/m2
21:14 31.2 °F /  -0.4 °C 23.6 °F /  -4.7 °C 30.05in /  1017.5hPa NNW 0.5mph /  0.8km/h 4mph /  6.4km/h 73% 0.00in /  0mm 0 W/m2
21:19 31.2 °F /  -0.4 °C 23.5 °F /  -4.7 °C 30.05in /  1017.5hPa NNW 0.1mph /  0.2km/h 4mph /  6.4km/h 73% 0.00in /  0mm 0 W/m2
21:24 31 °F /  -0.6 °C 23.5 °F /  -4.7 °C 30.05in /  1017.5hPa NNW 0.6mph /  1km/h 4mph /  6.4km/h 73.1% 0.00in /  0mm 0 W/m2
21:29 31 °F /  -0.6 °C 23.6 °F /  -4.7 °C 30.05in /  1017.5hPa Calm   4mph /  6.4km/h 73.8% 0.00in /  0mm 0 W/m2
21:34 30.9 °F /  -0.6 °C 23.6 °F /  -4.7 °C 30.05in /  1017.5hPa Calm   4mph /  6.4km/h 74% 0.00in /  0mm 0 W/m2
21:39 30.8 °F /  -0.7 °C 23.5 °F /  -4.7 °C 30.05in /  1017.5hPa Calm     74% 0.00in /  0mm 0 W/m2
21:44 30.7 °F /  -0.7 °C 23.4 °F /  -4.8 °C 30.05in /  1017.5hPa NNW 0.1mph /  0.2km/h 3mph /  4.8km/h 74% 0.00in /  0mm 0 W/m2
21:49 30.6 °F /  -0.8 °C 23.5 °F /  -4.7 °C 30.05in /  1017.5hPa NNW 0.1mph /  0.2km/h 3mph /  4.8km/h 74.8% 0.00in /  0mm 0 W/m2
21:54 30.5 °F /  -0.8 °C 23.5 °F /  -4.7 °C 30.05in /  1017.5hPa NNW 0.1mph /  0.2km/h 3mph /  4.8km/h 75% 0.00in /  0mm 0 W/m2
21:59 30.3 °F /  -0.9 °C 23.4 °F /  -4.8 °C 30.05in /  1017.5hPa NNW 0.2mph /  0.3km/h 3mph /  4.8km/h 75% 0.00in /  0mm 0 W/m2
22:04 30.2 °F /  -1 °C 23.6 °F /  -4.7 °C 30.05in /  1017.5hPa Calm   3mph /  4.8km/h 75.9% 0.00in /  0mm 0 W/m2
22:09 30.1 °F /  -1.1 °C 23.5 °F /  -4.7 °C 30.05in /  1017.5hPa Calm     76% 0.00in /  0mm 0 W/m2
22:14 30 °F /  -1.1 °C 23.4 °F /  -4.8 °C 30.05in /  1017.5hPa Calm     76% 0.00in /  0mm 0 W/m2
22:19 29.9 °F /  -1.2 °C 23.3 °F /  -4.8 °C 30.05in /  1017.5hPa Calm     76% 0.00in /  0mm 0 W/m2
22:24 29.8 °F /  -1.2 °C 23.2 °F /  -4.9 °C 30.05in /  1017.5hPa Calm     76% 0.00in /  0mm 0 W/m2
22:29 29.7 °F /  -1.3 °C 23.1 °F /  -4.9 °C 30.05in /  1017.5hPa Calm     76.1% 0.00in /  0mm 0 W/m2
22:34 29.6 °F /  -1.3 °C 23.3 °F /  -4.8 °C 30.04in /  1017.2hPa Calm     77% 0.00in /  0mm 0 W/m2
22:39 29.5 °F /  -1.4 °C 23.2 °F /  -4.9 °C 30.04in /  1017.2hPa Calm     77% 0.00in /  0mm 0 W/m2
22:44 29.4 °F /  -1.4 °C 23.1 °F /  -4.9 °C 30.04in /  1017.2hPa Calm     77.2% 0.00in /  0mm 0 W/m2
22:49 29.3 °F /  -1.5 °C 23.3 °F /  -4.8 °C 30.04in /  1017.2hPa Calm     78% 0.00in /  0mm 0 W/m2
22:54 29.2 °F /  -1.6 °C 23.2 °F /  -4.9 °C 30.04in /  1017.2hPa Calm     78% 0.00in /  0mm 0 W/m2
22:59 29.1 °F /  -1.6 °C 23.1 °F /  -4.9 °C 30.04in /  1017.2hPa Calm     78% 0.00in /  0mm 0 W/m2
23:09 28.9 °F /  -1.7 °C 22.9 °F /  -5.1 °C 30.04in /  1017.2hPa Calm     78% 0.00in /  0mm 0 W/m2
23:14 28.8 °F /  -1.8 °C 22.8 °F /  -5.1 °C 30.04in /  1017.2hPa Calm     78% 0.00in /  0mm 0 W/m2
23:19 28.7 °F /  -1.8 °C 22.8 °F /  -5.1 °C 30.04in /  1017.2hPa Calm     78.2% 0.00in /  0mm 0 W/m2
23:24 28.7 °F /  -1.8 °C 23 °F /  -5 °C 30.03in /  1016.8hPa Calm     79% 0.00in /  0mm 0 W/m2
23:29 28.6 °F /  -1.9 °C 22.9 °F /  -5.1 °C 30.03in /  1016.8hPa Calm     79% 0.00in /  0mm 0 W/m2
23:34 28.5 °F /  -1.9 °C 22.8 °F /  -5.1 °C 30.03in /  1016.8hPa Calm     79% 0.00in /  0mm 0 W/m2
23:39 28.5 °F /  -1.9 °C 22.8 °F /  -5.1 °C 30.03in /  1016.8hPa Calm     79% 0.00in /  0mm 0 W/m2
23:44 28.4 °F /  -2 °C 22.7 °F /  -5.2 °C 30.03in /  1016.8hPa Calm     79% 0.00in /  0mm 0 W/m2
23:49 28.3 °F /  -2.1 °C 22.9 °F /  -5.1 °C 30.03in /  1016.8hPa Calm     79.9% 0.00in /  0mm 0 W/m2
23:54 28.3 °F /  -2.1 °C 22.9 °F /  -5.1 °C 30.03in /  1016.8hPa Calm     80% 0.00in /  0mm 0 W/m2
23:59 28.1 °F /  -2.2 °C 22.8 °F /  -5.1 °C 30.04in /  1017.2hPa Calm     80% 0.00in /  0mm 0 W/m2
Hartford County Weather
Compliments of Weather Underground - 2 mb